sensor_id;sensor_type;location;lat;lon;timestamp;P1;durP1;ratioP1;P2;durP2;ratioP2
25649;SDS011;13505;45.196;5.696;2023-04-02T04:04:17;1.48;;;0.90;;
25649;SDS011;13505;45.196;5.696;2023-04-02T04:09:13;2.20;;;0.90;;
25649;SDS011;13505;45.196;5.696;2023-04-02T04:14:17;3.00;;;0.88;;
25649;SDS011;13505;45.196;5.696;2023-04-02T04:19:58;0.90;;;0.73;;
25649;SDS011;13505;45.196;5.696;2023-04-02T04:24:29;2.10;;;1.77;;
25649;SDS011;13505;45.196;5.696;2023-04-02T04:34:41;2.88;;;1.75;;
25649;SDS011;13505;45.196;5.696;2023-04-02T04:39:43;2.40;;;1.80;;
25649;SDS011;13505;45.196;5.696;2023-04-02T04:44:48;3.10;;;1.63;;
25649;SDS011;13505;45.196;5.696;2023-04-02T04:49:51;3.17;;;1.65;;
25649;SDS011;13505;45.196;5.696;2023-04-02T04:54:45;2.45;;;1.90;;
25649;SDS011;13505;45.196;5.696;2023-04-02T04:59:43;2.35;;;1.90;;
25649;SDS011;13505;45.196;5.696;2023-04-02T05:04:42;1.80;;;1.70;;
25649;SDS011;13505;45.196;5.696;2023-04-02T05:09:39;2.42;;;1.70;;
25649;SDS011;13505;45.196;5.696;2023-04-02T05:15:08;4.55;;;2.13;;
25649;SDS011;13505;45.196;5.696;2023-04-02T05:19:54;2.60;;;1.70;;
25649;SDS011;13505;45.196;5.696;2023-04-02T05:29:45;3.17;;;2.28;;
25649;SDS011;13505;45.196;5.696;2023-04-02T05:34:41;2.13;;;1.90;;
25649;SDS011;13505;45.196;5.696;2023-04-02T05:39:37;3.30;;;2.00;;
25649;SDS011;13505;45.196;5.696;2023-04-02T05:44:33;5.10;;;2.33;;
25649;SDS011;13505;45.196;5.696;2023-04-02T05:49:34;4.18;;;2.10;;
25649;SDS011;13505;45.196;5.696;2023-04-02T06:09:46;3.28;;;1.77;;
25649;SDS011;13505;45.196;5.696;2023-04-02T06:14:40;2.25;;;1.73;;
25649;SDS011;13505;45.196;5.696;2023-04-02T06:19:32;2.70;;;1.90;;
25649;SDS011;13505;45.196;5.696;2023-04-02T06:24:26;1.85;;;1.70;;
25649;SDS011;13505;45.196;5.696;2023-04-02T06:29:22;3.67;;;1.60;;
25649;SDS011;13505;45.196;5.696;2023-04-02T06:34:15;2.30;;;1.45;;
25649;SDS011;13505;45.196;5.696;2023-04-02T06:39:09;4.90;;;1.67;;
25649;SDS011;13505;45.196;5.696;2023-04-02T06:44:08;3.58;;;1.80;;
25649;SDS011;13505;45.196;5.696;2023-04-02T06:49:48;3.53;;;2.38;;
25649;SDS011;13505;45.196;5.696;2023-04-02T06:54:25;4.32;;;2.78;;
25649;SDS011;13505;45.196;5.696;2023-04-02T06:59:15;4.22;;;2.95;;
25649;SDS011;13505;45.196;5.696;2023-04-02T07:04:07;5.78;;;4.55;;
25649;SDS011;13505;45.196;5.696;2023-04-02T07:08:58;3.90;;;3.35;;
25649;SDS011;13505;45.196;5.696;2023-04-02T07:13:49;5.43;;;3.17;;
25649;SDS011;13505;45.196;5.696;2023-04-02T07:18:40;3.35;;;2.40;;
25649;SDS011;13505;45.196;5.696;2023-04-02T07:23:31;5.65;;;2.72;;
25649;SDS011;13505;45.196;5.696;2023-04-02T07:28:21;3.50;;;1.90;;
25649;SDS011;13505;45.196;5.696;2023-04-02T07:33:16;2.72;;;1.80;;
25649;SDS011;13505;45.196;5.696;2023-04-02T07:38:09;2.40;;;1.92;;
25649;SDS011;13505;45.196;5.696;2023-04-02T07:43:00;2.58;;;1.90;;
25649;SDS011;13505;45.196;5.696;2023-04-02T07:47:51;2.60;;;2.20;;
25649;SDS011;13505;45.196;5.696;2023-04-02T07:52:41;3.50;;;2.60;;
25649;SDS011;13505;45.196;5.696;2023-04-02T07:57:32;5.72;;;2.65;;
25649;SDS011;13505;45.196;5.696;2023-04-02T08:02:27;3.95;;;2.72;;
25649;SDS011;13505;45.196;5.696;2023-04-02T08:07:18;2.77;;;2.37;;
25649;SDS011;13505;45.196;5.696;2023-04-02T08:12:10;3.60;;;2.50;;
25649;SDS011;13505;45.196;5.696;2023-04-02T08:17:02;2.20;;;1.65;;
25649;SDS011;13505;45.196;5.696;2023-04-02T08:21:52;1.40;;;1.23;;
25649;SDS011;13505;45.196;5.696;2023-04-02T08:26:46;2.03;;;1.40;;
25649;SDS011;13505;45.196;5.696;2023-04-02T08:31:38;1.20;;;1.10;;
25649;SDS011;13505;45.196;5.696;2023-04-02T08:36:29;3.63;;;1.30;;
25649;SDS011;13505;45.196;5.696;2023-04-02T08:41:24;2.33;;;1.10;;
25649;SDS011;13505;45.196;5.696;2023-04-02T08:46:34;1.52;;;1.20;;
25649;SDS011;13505;45.196;5.696;2023-04-02T08:51:30;1.88;;;1.00;;
25649;SDS011;13505;45.196;5.696;2023-04-02T08:56:43;1.55;;;1.10;;
25649;SDS011;13505;45.196;5.696;2023-04-02T09:01:43;1.67;;;0.95;;
25649;SDS011;13505;45.196;5.696;2023-04-02T09:06:41;1.42;;;0.95;;
25649;SDS011;13505;45.196;5.696;2023-04-02T09:11:40;2.55;;;1.15;;
25649;SDS011;13505;45.196;5.696;2023-04-02T09:21:35;3.92;;;1.02;;
25649;SDS011;13505;45.196;5.696;2023-04-02T09:26:31;2.70;;;0.98;;
25649;SDS011;13505;45.196;5.696;2023-04-02T09:31:23;1.20;;;1.10;;
25649;SDS011;13505;45.196;5.696;2023-04-02T09:36:38;0.80;;;0.80;;
25649;SDS011;13505;45.196;5.696;2023-04-02T09:41:29;0.85;;;0.85;;
25649;SDS011;13505;45.196;5.696;2023-04-02T09:46:21;1.02;;;0.60;;
25649;SDS011;13505;45.196;5.696;2023-04-02T09:51:14;2.08;;;0.73;;
25649;SDS011;13505;45.196;5.696;2023-04-02T10:01:02;2.30;;;0.40;;
25649;SDS011;13505;45.196;5.696;2023-04-02T10:06:03;0.80;;;0.60;;
25649;SDS011;13505;45.196;5.696;2023-04-02T10:10:56;1.35;;;0.50;;
25649;SDS011;13505;45.196;5.696;2023-04-02T10:15:52;1.50;;;0.45;;
25649;SDS011;13505;45.196;5.696;2023-04-02T10:20:49;1.58;;;0.80;;
25649;SDS011;13505;45.196;5.696;2023-04-02T10:25:43;0.55;;;0.50;;
25649;SDS011;13505;45.196;5.696;2023-04-02T10:30:57;0.93;;;0.50;;
25649;SDS011;13505;45.196;5.696;2023-04-02T10:36:18;0.60;;;0.60;;
25649;SDS011;13505;45.196;5.696;2023-04-02T10:46:22;1.15;;;0.35;;
25649;SDS011;13505;45.196;5.696;2023-04-02T10:51:28;0.57;;;0.40;;
25649;SDS011;13505;45.196;5.696;2023-04-02T10:56:30;0.75;;;0.50;;
25649;SDS011;13505;45.196;5.696;2023-04-02T11:01:25;0.35;;;0.20;;
25649;SDS011;13505;45.196;5.696;2023-04-02T11:11:11;3.30;;;0.30;;
25649;SDS011;13505;45.196;5.696;2023-04-02T11:16:02;0.73;;;0.10;;
25649;SDS011;13505;45.196;5.696;2023-04-02T11:20:57;0.30;;;0.30;;
25649;SDS011;13505;45.196;5.696;2023-04-02T11:25:49;0.40;;;0.40;;
25649;SDS011;13505;45.196;5.696;2023-04-02T11:30:40;1.35;;;0.47;;
25649;SDS011;13505;45.196;5.696;2023-04-02T11:50:37;0.50;;;0.50;;
25649;SDS011;13505;45.196;5.696;2023-04-02T11:55:30;1.65;;;0.70;;
25649;SDS011;13505;45.196;5.696;2023-04-02T12:00:25;0.85;;;0.50;;
25649;SDS011;13505;45.196;5.696;2023-04-02T12:15:49;0.57;;;0.57;;
25649;SDS011;13505;45.196;5.696;2023-04-02T12:20:45;0.65;;;0.50;;
25649;SDS011;13505;45.196;5.696;2023-04-02T12:25:37;2.90;;;0.40;;
25649;SDS011;13505;45.196;5.696;2023-04-02T12:30:29;0.82;;;0.63;;
25649;SDS011;13505;45.196;5.696;2023-04-02T12:35:28;2.40;;;1.47;;
25649;SDS011;13505;45.196;5.696;2023-04-02T12:40:22;2.53;;;1.58;;
25649;SDS011;13505;45.196;5.696;2023-04-02T12:45:24;3.30;;;1.63;;
25649;SDS011;13505;45.196;5.696;2023-04-02T12:50:16;5.57;;;2.40;;
25649;SDS011;13505;45.196;5.696;2023-04-02T12:55:14;1.52;;;1.00;;
25649;SDS011;13505;45.196;5.696;2023-04-02T13:05:10;1.75;;;1.40;;
25649;SDS011;13505;45.196;5.696;2023-04-02T13:10:05;4.18;;;2.40;;
25649;SDS011;13505;45.196;5.696;2023-04-02T13:15:29;1.00;;;0.90;;
25649;SDS011;13505;45.196;5.696;2023-04-02T13:25:25;0.60;;;0.50;;
25649;SDS011;13505;45.196;5.696;2023-04-02T13:30:21;1.25;;;0.80;;
25649;SDS011;13505;45.196;5.696;2023-04-02T13:35:14;0.88;;;0.57;;
25649;SDS011;13505;45.196;5.696;2023-04-02T13:40:04;1.70;;;0.80;;
25649;SDS011;13505;45.196;5.696;2023-04-02T13:44:55;1.23;;;0.60;;
25649;SDS011;13505;45.196;5.696;2023-04-02T13:49:46;0.50;;;0.40;;
25649;SDS011;13505;45.196;5.696;2023-04-02T13:59:40;4.00;;;0.82;;
25649;SDS011;13505;45.196;5.696;2023-04-02T14:04:31;0.60;;;0.60;;
25649;SDS011;13505;45.196;5.696;2023-04-02T14:09:32;8.57;;;1.58;;
25649;SDS011;13505;45.196;5.696;2023-04-02T14:25:25;2.67;;;0.88;;
25649;SDS011;13505;45.196;5.696;2023-04-02T14:30:44;1.30;;;0.85;;
25649;SDS011;13505;45.196;5.696;2023-04-02T14:35:37;1.80;;;0.80;;
25649;SDS011;13505;45.196;5.696;2023-04-02T14:50:38;0.80;;;0.80;;
25649;SDS011;13505;45.196;5.696;2023-04-02T14:55:40;1.15;;;0.85;;
25649;SDS011;13505;45.196;5.696;2023-04-02T15:00:39;1.02;;;0.85;;
25649;SDS011;13505;45.196;5.696;2023-04-02T15:10:30;1.60;;;1.17;;
25649;SDS011;13505;45.196;5.696;2023-04-02T15:26:05;1.30;;;1.02;;
25649;SDS011;13505;45.196;5.696;2023-04-02T15:30:58;10.65;;;1.50;;
25649;SDS011;13505;45.196;5.696;2023-04-02T15:41:24;214.65;;;13.93;;
25649;SDS011;13505;45.196;5.696;2023-04-02T15:51:21;97.57;;;8.60;;
25649;SDS011;13505;45.196;5.696;2023-04-02T15:56:29;45.15;;;4.13;;
25649;SDS011;13505;45.196;5.696;2023-04-02T16:06:26;27.63;;;2.33;;
25649;SDS011;13505;45.196;5.696;2023-04-02T16:11:21;12.63;;;1.83;;
25649;SDS011;13505;45.196;5.696;2023-04-02T16:21:14;2.85;;;1.10;;
25649;SDS011;13505;45.196;5.696;2023-04-02T16:26:33;3.85;;;2.03;;
25649;SDS011;13505;45.196;5.696;2023-04-02T16:46:59;2.72;;;1.08;;
25649;SDS011;13505;45.196;5.696;2023-04-02T17:12:03;2.13;;;1.70;;
25649;SDS011;13505;45.196;5.696;2023-04-02T17:17:03;3.13;;;2.10;;
25649;SDS011;13505;45.196;5.696;2023-04-02T17:22:01;3.80;;;1.80;;
25649;SDS011;13505;45.196;5.696;2023-04-02T17:26:56;4.97;;;1.67;;
25649;SDS011;13505;45.196;5.696;2023-04-02T17:31:53;2.22;;;1.70;;
25649;SDS011;13505;45.196;5.696;2023-04-02T17:36:57;2.08;;;1.63;;
25649;SDS011;13505;45.196;5.696;2023-04-02T17:41:59;6.30;;;1.58;;
25649;SDS011;13505;45.196;5.696;2023-04-02T17:47:18;3.22;;;1.75;;
25649;SDS011;13505;45.196;5.696;2023-04-02T17:52:14;3.25;;;1.50;;
25649;SDS011;13505;45.196;5.696;2023-04-02T18:02:58;1.30;;;1.02;;
25649;SDS011;13505;45.196;5.696;2023-04-02T18:08:19;4.05;;;1.10;;
25649;SDS011;13505;45.196;5.696;2023-04-02T18:23:38;1.63;;;1.23;;
25649;SDS011;13505;45.196;5.696;2023-04-02T18:33:50;1.27;;;1.13;;
25649;SDS011;13505;45.196;5.696;2023-04-02T18:38:52;1.77;;;1.15;;
25649;SDS011;13505;45.196;5.696;2023-04-02T18:54:14;1.80;;;1.30;;
25649;SDS011;13505;45.196;5.696;2023-04-02T18:59:29;3.42;;;1.40;;
25649;SDS011;13505;45.196;5.696;2023-04-02T19:04:30;3.08;;;1.35;;
25649;SDS011;13505;45.196;5.696;2023-04-02T19:09:25;1.80;;;1.50;;
25649;SDS011;13505;45.196;5.696;2023-04-02T19:14:20;2.15;;;1.40;;
25649;SDS011;13505;45.196;5.696;2023-04-02T19:19:22;2.45;;;1.40;;
25649;SDS011;13505;45.196;5.696;2023-04-02T19:29:28;1.98;;;1.40;;
25649;SDS011;13505;45.196;5.696;2023-04-02T19:34:36;1.63;;;1.40;;
25649;SDS011;13505;45.196;5.696;2023-04-02T19:44:43;1.73;;;1.30;;
25649;SDS011;13505;45.196;5.696;2023-04-02T19:49:37;1.73;;;1.38;;
25649;SDS011;13505;45.196;5.696;2023-04-02T19:54:27;3.28;;;1.48;;
25649;SDS011;13505;45.196;5.696;2023-04-02T19:59:17;2.75;;;1.33;;
25649;SDS011;13505;45.196;5.696;2023-04-02T20:04:08;2.38;;;1.50;;
25649;SDS011;13505;45.196;5.696;2023-04-02T20:08:58;2.00;;;1.30;;
25649;SDS011;13505;45.196;5.696;2023-04-02T20:13:48;1.70;;;1.30;;
25649;SDS011;13505;45.196;5.696;2023-04-02T20:18:39;2.08;;;1.10;;
25649;SDS011;13505;45.196;5.696;2023-04-02T20:23:29;2.33;;;1.40;;
25649;SDS011;13505;45.196;5.696;2023-04-02T20:28:20;2.17;;;1.35;;
25649;SDS011;13505;45.196;5.696;2023-04-02T20:33:11;2.30;;;1.48;;
25649;SDS011;13505;45.196;5.696;2023-04-02T20:38:02;1.98;;;1.48;;
25649;SDS011;13505;45.196;5.696;2023-04-02T20:42:55;1.88;;;1.20;;
25649;SDS011;13505;45.196;5.696;2023-04-02T20:47:45;1.57;;;1.20;;
25649;SDS011;13505;45.196;5.696;2023-04-02T20:52:36;1.58;;;1.27;;
25649;SDS011;13505;45.196;5.696;2023-04-02T20:57:29;1.98;;;1.35;;
25649;SDS011;13505;45.196;5.696;2023-04-02T21:02:20;2.28;;;1.20;;
25649;SDS011;13505;45.196;5.696;2023-04-02T21:07:10;2.13;;;1.48;;
25649;SDS011;13505;45.196;5.696;2023-04-02T21:12:00;1.30;;;1.10;;
25649;SDS011;13505;45.196;5.696;2023-04-02T21:16:51;1.02;;;0.90;;
25649;SDS011;13505;45.196;5.696;2023-04-02T21:21:41;1.10;;;0.95;;
25649;SDS011;13505;45.196;5.696;2023-04-02T21:26:34;2.95;;;1.10;;
25649;SDS011;13505;45.196;5.696;2023-04-02T21:31:27;3.28;;;1.40;;
25649;SDS011;13505;45.196;5.696;2023-04-02T21:36:20;1.30;;;1.10;;
25649;SDS011;13505;45.196;5.696;2023-04-02T21:41:17;1.30;;;1.20;;
25649;SDS011;13505;45.196;5.696;2023-04-02T21:46:11;1.17;;;1.08;;
25649;SDS011;13505;45.196;5.696;2023-04-02T21:51:05;1.43;;;1.10;;
25649;SDS011;13505;45.196;5.696;2023-04-02T21:56:04;1.58;;;1.20;;
